createdAt,value
2018-08-24T13:19:01.926Z,15.03
2018-08-24T13:21:30.453Z,16.67
2018-08-24T13:23:58.903Z,16.30
2018-08-24T13:26:27.367Z,16.97
2018-08-24T13:28:55.839Z,15.40
2018-08-24T13:31:24.358Z,16.70
2018-08-24T13:33:52.828Z,18.03
2018-08-24T13:36:21.290Z,17.87
2018-08-24T13:38:49.820Z,16.00
2018-08-24T13:41:18.400Z,16.97
2018-08-24T13:43:46.886Z,16.10
2018-08-24T13:46:19.863Z,17.07
2018-08-24T13:48:49.262Z,16.10
2018-08-24T13:51:17.777Z,16.47
2018-08-24T13:53:46.568Z,17.00
2018-08-24T13:56:15.382Z,16.97
2018-08-24T13:58:43.855Z,17.77
2018-08-24T14:01:13.638Z,17.90
2018-08-24T14:03:42.171Z,16.10
2018-08-24T14:06:10.646Z,16.40
2018-08-24T14:08:39.127Z,16.30
2018-08-24T14:11:07.764Z,17.67
2018-08-24T14:13:36.283Z,16.90
2018-08-24T14:16:04.738Z,18.90
2018-08-24T14:18:33.235Z,18.23
2018-08-24T14:21:01.779Z,18.20
2018-08-24T14:23:30.259Z,17.37
2018-08-24T14:25:58.922Z,18.77
2018-08-24T14:28:27.404Z,18.60
2018-08-24T14:30:55.886Z,19.13
2018-08-24T14:33:24.354Z,21.17
2018-08-24T14:35:52.930Z,20.10
2018-08-24T14:38:21.594Z,22.13
2018-08-24T14:40:50.043Z,21.50
2018-08-24T14:43:18.582Z,22.77
2018-08-24T14:45:47.055Z,19.63
2018-08-24T14:48:15.564Z,15.80
2018-08-24T14:50:44.031Z,17.10
2018-08-24T14:53:12.506Z,16.73
2018-08-24T14:55:40.974Z,15.07
2018-08-24T14:58:09.484Z,13.67
2018-08-24T15:00:37.947Z,12.03
2018-08-24T15:03:06.535Z,12.30
2018-08-24T15:05:35.007Z,13.77
2018-08-24T15:08:03.478Z,13.17
2018-08-24T15:10:32.072Z,12.37
2018-08-24T15:13:00.558Z,11.70
2018-08-24T15:15:29.134Z,12.57
2018-08-24T15:17:57.587Z,11.70
2018-08-24T15:20:26.051Z,11.83
2018-08-24T15:22:54.513Z,12.33
2018-08-24T15:25:23.026Z,14.50
2018-08-24T15:27:51.488Z,11.90
2018-08-24T15:30:19.992Z,11.73
2018-08-24T15:32:49.044Z,11.53
2018-08-24T15:35:17.584Z,11.90
2018-08-24T15:37:46.064Z,12.70
2018-08-24T15:40:14.555Z,12.50
2018-08-24T15:42:43.178Z,12.30
2018-08-24T15:45:11.810Z,14.10
2018-08-24T15:47:40.954Z,12.33
2018-08-24T15:50:09.587Z,9.83
2018-08-24T15:52:38.043Z,9.47
2018-08-24T15:55:06.612Z,11.60
2018-08-24T15:57:35.101Z,11.63
2018-08-24T16:00:04.272Z,12.93
2018-08-24T16:02:32.735Z,12.97
2018-08-24T16:05:01.193Z,13.80
2018-08-24T16:07:29.698Z,13.30
2018-08-24T16:09:58.170Z,15.70
2018-08-24T16:12:26.634Z,14.70
2018-08-24T16:14:55.094Z,15.40
2018-08-24T16:17:23.555Z,12.00
2018-08-24T16:19:52.023Z,12.30
2018-08-24T16:22:20.487Z,12.10
2018-08-24T16:24:48.944Z,12.27
2018-08-24T16:27:18.743Z,12.90
2018-08-24T16:29:47.198Z,13.43
2018-08-24T16:32:15.683Z,14.27
2018-08-24T16:34:44.152Z,13.97
2018-08-24T16:37:12.638Z,14.73
2018-08-24T16:39:41.110Z,14.67
2018-08-24T16:42:09.584Z,13.50
2018-08-24T16:44:38.035Z,15.40
2018-08-24T16:47:06.498Z,14.00
2018-08-24T16:49:35.063Z,15.00
2018-08-24T16:52:03.569Z,15.80
2018-08-24T16:54:32.091Z,14.27
2018-08-24T16:57:00.606Z,14.17
2018-08-24T16:59:29.062Z,15.90
2018-08-24T17:01:57.523Z,14.53
2018-08-24T17:04:25.991Z,13.93
2018-08-24T17:06:54.451Z,12.53
2018-08-24T17:09:22.911Z,13.87
2018-08-24T17:11:51.402Z,14.57
2018-08-24T17:14:19.866Z,13.57
2018-08-24T17:16:48.329Z,13.77
2018-08-24T17:19:16.798Z,15.17
2018-08-24T17:21:45.263Z,15.00
2018-08-24T17:24:13.727Z,14.20
2018-08-24T17:26:42.187Z,13.50
2018-08-24T17:29:10.771Z,11.80
2018-08-24T17:31:39.259Z,13.13
2018-08-24T17:34:07.723Z,13.70
2018-08-24T17:36:36.199Z,13.77
2018-08-24T17:39:08.174Z,13.13
2018-08-24T17:41:36.693Z,13.37
2018-08-24T17:44:05.259Z,12.17
2018-08-24T17:46:33.797Z,12.93
2018-08-24T17:49:02.329Z,12.33
2018-08-24T17:51:30.863Z,13.27
2018-08-24T17:53:59.327Z,13.73
2018-08-24T17:56:27.797Z,15.03
2018-08-24T17:58:56.359Z,13.77
2018-08-24T18:01:24.854Z,13.80
2018-08-24T18:03:53.323Z,14.50
2018-08-24T18:06:21.782Z,13.50
2018-08-24T18:08:50.415Z,13.80
2018-08-24T18:11:18.895Z,15.07
2018-08-24T18:13:47.490Z,15.10
2018-08-24T18:16:15.974Z,13.90
2018-08-24T18:18:44.444Z,14.63
2018-08-24T18:21:12.923Z,14.00
2018-08-24T18:23:41.379Z,14.97
2018-08-24T18:26:10.571Z,15.50
2018-08-24T18:28:39.059Z,14.80
2018-08-24T18:31:08.255Z,13.50
2018-08-24T18:33:36.732Z,14.20
2018-08-24T18:36:05.451Z,13.20
2018-08-24T18:38:34.090Z,15.07
2018-08-24T18:41:02.606Z,13.00
2018-08-24T18:43:31.286Z,12.97
2018-08-24T18:45:59.820Z,13.73
2018-08-24T18:48:28.328Z,13.77
2018-08-24T18:50:56.875Z,13.30
2018-08-24T18:53:25.481Z,14.00
2018-08-24T18:55:54.011Z,15.50
2018-08-24T18:58:22.897Z,13.20
2018-08-24T19:00:51.542Z,13.20
2018-08-24T19:03:20.031Z,13.93
2018-08-24T19:05:48.494Z,14.03
2018-08-24T19:08:17.022Z,14.00
2018-08-24T19:10:50.760Z,13.43
2018-08-24T19:13:19.267Z,14.47
2018-08-24T19:15:48.476Z,13.93
2018-08-24T19:18:22.204Z,14.93
2018-08-24T19:20:55.878Z,13.53
2018-08-24T19:23:26.287Z,13.50
2018-08-24T19:25:55.116Z,14.00
2018-08-24T19:28:29.399Z,14.10
2018-08-24T19:30:57.891Z,14.37
2018-08-24T19:33:26.673Z,14.60
2018-08-24T19:35:55.146Z,14.10
2018-08-24T19:38:23.619Z,14.20
2018-08-24T19:40:58.754Z,14.47
2018-08-24T19:43:27.595Z,12.83
2018-08-24T19:45:56.058Z,15.17
2018-08-24T19:48:29.879Z,13.57
2018-08-24T19:50:58.355Z,13.37
2018-08-24T19:53:27.088Z,12.50
2018-08-24T19:55:55.647Z,10.83
2018-08-24T19:58:30.407Z,13.13
2018-08-24T20:00:59.395Z,12.20
2018-08-24T20:03:29.162Z,11.80
2018-08-24T20:06:03.727Z,13.10
2018-08-24T20:08:37.948Z,11.37
2018-08-24T20:11:06.626Z,13.40
2018-08-24T20:13:35.423Z,13.27
2018-08-24T20:16:10.024Z,13.13
2018-08-24T20:18:38.873Z,13.30
2018-08-24T20:21:09.583Z,13.00
2018-08-24T20:23:38.307Z,12.10
2018-08-24T20:26:07.287Z,13.30
2018-08-24T20:28:35.963Z,14.70
2018-08-24T20:31:04.491Z,12.87
2018-08-24T20:33:33.036Z,13.70
2018-08-24T20:36:01.506Z,13.90
2018-08-24T20:38:29.987Z,13.50
2018-08-24T20:40:58.491Z,13.47
2018-08-24T20:43:26.959Z,13.23
2018-08-24T20:45:55.446Z,13.40
2018-08-24T20:48:23.915Z,12.80
2018-08-24T20:50:52.378Z,13.70
2018-08-24T20:53:20.840Z,13.60
2018-08-24T20:55:49.307Z,13.70
2018-08-24T20:58:17.767Z,14.50
2018-08-24T21:00:46.231Z,13.17
2018-08-24T21:03:14.703Z,13.00
2018-08-24T21:05:43.208Z,13.13
2018-08-24T21:08:11.654Z,12.67
2018-08-24T21:10:40.123Z,12.80
2018-08-24T21:13:08.588Z,13.50
2018-08-24T21:15:37.047Z,13.30
2018-08-24T21:18:05.608Z,14.10
2018-08-24T21:20:34.146Z,13.23
2018-08-24T21:23:02.607Z,13.60
2018-08-24T21:25:31.108Z,12.27
2018-08-24T21:27:59.579Z,14.13
2018-08-24T21:30:28.061Z,14.00
2018-08-24T21:32:56.554Z,14.10
2018-08-24T21:35:25.010Z,13.83
2018-08-24T21:37:53.483Z,14.50
2018-08-24T21:40:21.961Z,13.90
2018-08-24T21:42:50.436Z,14.30
2018-08-24T21:45:18.902Z,13.43
2018-08-24T21:47:47.368Z,12.43
2018-08-24T21:50:15.847Z,14.80
2018-08-24T21:52:44.330Z,13.90
2018-08-24T21:55:12.908Z,14.47
2018-08-24T21:57:41.358Z,13.33
2018-08-24T22:00:14.295Z,10.87
2018-08-24T22:02:43.075Z,8.90
2018-08-24T22:05:11.543Z,9.60
2018-08-24T22:07:40.008Z,10.63
2018-08-24T22:10:08.526Z,10.20
2018-08-24T22:12:37.299Z,12.47
2018-08-24T22:15:05.871Z,11.80
2018-08-24T22:17:34.332Z,12.53
2018-08-24T22:20:02.826Z,13.73
2018-08-24T22:22:31.335Z,14.03
2018-08-24T22:24:59.802Z,13.57
2018-08-24T22:27:28.262Z,14.00
2018-08-24T22:29:56.771Z,12.73
2018-08-24T22:32:25.211Z,12.77
2018-08-24T22:34:53.705Z,13.37
2018-08-24T22:37:22.171Z,12.30
2018-08-24T22:39:50.643Z,12.67
2018-08-24T22:42:19.102Z,11.97
2018-08-24T22:44:47.565Z,10.30
2018-08-24T22:47:16.018Z,11.90
2018-08-24T22:49:44.466Z,7.57
2018-08-24T22:52:12.911Z,7.70
2018-08-24T22:54:41.370Z,8.07
2018-08-24T22:57:09.871Z,7.93
2018-08-24T22:59:38.379Z,8.20
2018-08-24T23:02:06.898Z,6.40
2018-08-24T23:04:35.366Z,7.10
2018-08-24T23:07:03.863Z,7.57
2018-08-24T23:09:32.310Z,6.80
2018-08-24T23:12:00.767Z,5.27
2018-08-24T23:14:29.225Z,6.20
2018-08-24T23:16:57.674Z,5.90
2018-08-24T23:19:26.153Z,6.10
2018-08-24T23:21:54.607Z,5.20
2018-08-24T23:24:23.058Z,5.17
2018-08-24T23:26:51.525Z,5.97
2018-08-24T23:29:19.992Z,5.30
2018-08-24T23:31:48.470Z,5.03
2018-08-24T23:34:16.923Z,5.67
2018-08-24T23:36:45.403Z,4.83
2018-08-24T23:39:13.862Z,5.30
2018-08-24T23:41:42.354Z,6.77
2018-08-24T23:44:10.862Z,5.60
2018-08-24T23:46:39.314Z,6.50
2018-08-24T23:49:07.775Z,5.20
2018-08-24T23:51:36.235Z,6.20
2018-08-24T23:54:04.715Z,5.60
2018-08-24T23:56:33.181Z,7.20
2018-08-24T23:59:01.643Z,6.33
